Time;durP1;ratioP1;P1;durP2;ratioP2;P2;SDS_P1;SDS_P2;PMS_P1;PMS_P2;Temp;Humidity;BMP_temperature;BMP_pressure;BME280_temperature;BME280_humidity;BME280_pressure;Samples;Min_cycle;Max_cycle;Signal;HPM_P1;HPM_P2
2020/12/06 00:01:27;;;;;;;29.57;14.20;;;;;;;7.56;81.49;98410.70;1512242;94;21627;-65
2020/12/06 00:03:53;;;;;;;24.73;13.40;;;;;;;7.60;81.49;98406.21;1512296;95;21196;-65
2020/12/06 00:06:21;;;;;;;32.00;14.40;;;;;;;7.63;81.34;98407.45;1512183;95;21179;-67
2020/12/06 00:08:50;;;;;;;27.90;13.40;;;;;;;7.61;81.38;98413.16;1512064;95;21588;-67
2020/12/06 00:11:17;;;;;;;29.17;13.87;;;;;;;7.58;81.43;98403.59;1512128;94;21742;-66
2020/12/06 00:20:30;;;;;;;29.67;14.47;;;;;;;7.49;81.49;98399.66;1512220;95;21298;-65
2020/12/06 00:22:57;;;;;;;28.80;14.43;;;;;;;7.41;81.48;98414.02;1512475;94;21196;-67
2020/12/06 00:25:24;;;;;;;33.20;15.67;;;;;;;7.39;81.55;98416.80;1512459;95;21325;-64
2020/12/06 00:27:51;;;;;;;31.57;13.87;;;;;;;7.36;81.96;98418.27;1512241;94;21592;-64
2020/12/06 00:30:18;;;;;;;26.17;12.10;;;;;;;7.34;81.79;98420.52;1512218;95;21184;-64
2020/12/06 00:32:45;;;;;;;29.70;14.83;;;;;;;7.28;82.02;98418.56;1512408;94;21167;-64
2020/12/06 00:35:11;;;;;;;33.23;14.57;;;;;;;7.24;82.17;98416.86;1512343;94;21183;-63
2020/12/06 00:37:39;;;;;;;26.83;13.77;;;;;;;7.24;82.24;98419.00;1512092;94;21168;-66
2020/12/06 00:40:07;;;;;;;32.37;14.77;;;;;;;7.22;82.43;98418.55;1512254;95;21172;-65
2020/12/06 00:42:35;;;;;;;28.10;14.33;;;;;;;7.23;82.59;98412.60;1512171;95;21180;-64
2020/12/06 00:45:05;;;;;;;27.90;13.43;;;;;;;7.19;82.85;98405.73;1512139;95;21229;-66
2020/12/06 00:47:37;;;;;;;25.80;14.07;;;;;;;7.19;83.01;98413.03;1512122;94;21207;-66
2020/12/06 00:50:05;;;;;;;;;;;;;;;7.17;82.81;98402.56;1514453;94;21176;-66
2020/12/06 00:52:32;;;;;;;29.23;14.07;;;;;;;7.07;83.54;98409.72;1512181;95;20154;-65
2020/12/06 00:54:59;;;;;;;31.27;14.57;;;;;;;7.05;82.98;98411.17;1512218;94;21353;-64
2020/12/06 00:57:26;;;;;;;29.67;14.77;;;;;;;7.02;82.91;98410.46;1512186;94;21168;-65
2020/12/06 00:59:52;;;;;;;30.53;15.50;;;;;;;7.00;83.05;98410.81;1512260;94;21156;-65
2020/12/06 01:02:19;;;;;;;28.80;14.93;;;;;;;6.95;83.14;98407.50;1512203;94;21601;-65
2020/12/06 01:04:46;;;;;;;32.27;15.47;;;;;;;6.91;83.69;98416.02;1512443;95;21175;-65
2020/12/06 01:07:13;;;;;;;28.90;16.67;;;;;;;6.85;83.79;98426.78;1512388;94;21323;-65
2020/12/06 01:09:40;;;;;;;35.23;15.67;;;;;;;6.72;84.51;98425.91;1512272;95;21199;-65
2020/12/06 01:12:07;;;;;;;33.10;15.07;;;;;;;6.59;85.50;98425.60;1512199;95;21612;-65
2020/12/06 01:14:33;;;;;;;27.60;14.37;;;;;;;6.57;85.94;98427.27;1512240;95;21654;-65
2020/12/06 01:17:00;;;;;;;31.70;15.30;;;;;;;6.57;85.91;98431.86;1512240;94;21583;-66
2020/12/06 01:19:27;;;;;;;29.53;15.00;;;;;;;6.51;88.03;98429.92;1512558;94;21611;-64
2020/12/06 01:21:54;;;;;;;33.27;15.47;;;;;;;6.49;88.34;98427.30;1512376;94;21226;-65
2020/12/06 01:24:21;;;;;;;36.37;16.27;;;;;;;6.43;89.19;98429.41;1512111;94;21643;-65
2020/12/06 01:26:48;;;;;;;30.27;14.87;;;;;;;6.49;87.71;98425.95;1512175;95;21650;-66
2020/12/06 01:29:15;;;;;;;28.47;14.67;;;;;;;6.48;87.44;98424.41;1512104;95;21636;-63
2020/12/06 01:31:47;;;;;;;33.03;15.83;;;;;;;6.52;87.13;98424.78;1512400;94;21195;-62
2020/12/06 01:34:14;;;;;;;28.55;15.08;;;;;;;6.53;86.93;98424.98;1512286;95;21573;-66
2020/12/06 01:36:42;;;;;;;29.10;13.63;;;;;;;6.52;86.98;98426.68;1512182;94;21199;-67
2020/12/06 01:39:09;;;;;;;26.37;13.80;;;;;;;6.51;86.91;98423.75;1512465;94;21199;-64
2020/12/06 01:41:36;;;;;;;28.33;14.13;;;;;;;6.54;86.81;98421.74;1512180;94;21357;-63
2020/12/06 01:44:06;;;;;;;27.33;14.23;;;;;;;6.55;87.15;98417.94;1512150;94;21357;-66
2020/12/06 01:46:36;;;;;;;28.43;13.67;;;;;;;6.59;86.70;98422.36;1512336;94;21250;-64
2020/12/06 01:49:03;;;;;;;25.67;13.73;;;;;;;6.60;86.39;98424.47;1492045;95;21667;-64
2020/12/06 01:51:30;;;;;;;27.17;13.83;;;;;;;6.62;86.15;98424.95;1512176;94;21194;-66
2020/12/06 01:53:56;;;;;;;30.90;15.20;;;;;;;6.59;85.97;98423.70;1512560;94;21167;-63
2020/12/06 01:56:23;;;;;;;27.07;13.47;;;;;;;6.57;86.01;98427.81;1492101;95;21152;-66
2020/12/06 01:58:50;;;;;;;28.90;14.53;;;;;;;6.55;86.27;98421.42;1512315;95;21154;-64
2020/12/06 02:04:58;;;;;;;27.50;14.30;;;;;;;6.50;86.01;98434.28;1512114;95;21282;-65
2020/12/06 02:07:27;;;;;;;27.23;13.67;;;;;;;6.39;85.79;98430.37;1512380;95;21211;-64
2020/12/06 02:09:54;;;;;;;32.63;15.40;;;;;;;6.35;86.03;98436.98;1512547;94;21163;-65
2020/12/06 02:12:21;;;;;;;27.03;13.53;;;;;;;6.32;86.02;98441.67;1512155;95;21757;-66
2020/12/06 02:14:48;;;;;;;26.70;13.53;;;;;;;6.28;85.94;98430.75;1512255;95;21190;-62
2020/12/06 02:17:15;;;;;;;26.93;13.07;;;;;;;6.26;86.20;98428.93;1512145;94;21207;-66
2020/12/06 02:19:42;;;;;;;28.07;14.10;;;;;;;6.26;86.10;98430.86;1511464;94;21132;-64
2020/12/06 02:22:09;;;;;;;27.77;13.97;;;;;;;6.22;86.01;98430.69;1512397;95;21198;-60
2020/12/06 02:24:35;;;;;;;30.60;14.57;;;;;;;6.24;86.09;98429.03;1512179;94;21647;-61
2020/12/06 02:27:03;;;;;;;25.77;12.57;;;;;;;6.25;86.23;98427.38;1512383;95;21530;-63
2020/12/06 02:33:12;;;;;;;27.53;12.70;;;;;;;6.33;86.43;98430.34;1512157;95;21148;-64
2020/12/06 02:35:39;;;;;;;25.67;12.43;;;;;;;6.34;86.25;98421.16;1512142;94;21313;-62
2020/12/06 02:38:06;;;;;;;25.23;13.00;;;;;;;6.31;86.35;98426.06;1512396;95;21187;-63
2020/12/06 02:40:33;;;;;;;27.43;13.07;;;;;;;6.28;86.46;98423.23;1512145;94;21603;-64
2020/12/06 02:42:59;;;;;;;28.10;13.70;;;;;;;6.27;86.61;98423.78;1512114;95;21152;-61
2020/12/06 02:49:08;;;;;;;29.00;13.50;;;;;;;6.20;86.58;98438.31;1512133;95;21620;-63
2020/12/06 02:51:35;;;;;;;27.00;12.23;;;;;;;6.13;86.45;98429.16;1512512;95;21195;-65
2020/12/06 02:54:03;;;;;;;24.67;12.90;;;;;;;6.13;87.10;98429.16;1512105;94;21179;-66
2020/12/06 02:56:29;;;;;;;25.03;13.37;;;;;;;6.17;86.93;98428.75;1512535;94;21365;-63
2020/12/06 02:58:56;;;;;;;28.63;13.40;;;;;;;6.14;87.17;98431.55;1512107;95;21172;-65
2020/12/06 03:05:05;;;;;;;28.13;13.80;;;;;;;6.10;86.98;98427.91;1512118;95;21175;-64
2020/12/06 03:07:32;;;;;;;29.10;14.77;;;;;;;6.04;86.64;98425.70;1512550;94;21197;-62
2020/12/06 03:09:59;;;;;;;25.30;13.83;;;;;;;6.00;86.56;98428.25;1512406;94;21186;-64
2020/12/06 03:12:25;;;;;;;26.57;13.50;;;;;;;5.98;86.88;98421.62;1512414;94;21231;-63
2020/12/06 03:14:52;;;;;;;30.60;15.73;;;;;;;5.95;86.70;98424.41;1512184;94;21156;-63
2020/12/06 03:17:19;;;;;;;31.37;15.83;;;;;;;5.91;86.64;98438.27;1512698;95;21139;-61
2020/12/06 03:19:46;;;;;;;31.87;16.63;;;;;;;5.85;86.65;98443.55;1512122;94;21211;-63
2020/12/06 03:22:12;;;;;;;27.97;14.10;;;;;;;5.80;86.71;98443.73;1512113;95;21159;-65
2020/12/06 03:24:39;;;;;;;28.70;15.60;;;;;;;5.75;86.85;98440.66;1512066;94;21218;-63
2020/12/06 03:27:06;;;;;;;30.37;15.73;;;;;;;5.71;86.86;98434.33;1512439;95;21309;-64
2020/12/06 03:33:15;;;;;;;25.87;14.03;;;;;;;5.63;87.11;98441.86;1512099;95;21285;-65
2020/12/06 03:35:41;;;;;;;27.87;15.13;;;;;;;5.54;87.79;98438.41;1512310;95;21594;-64
2020/12/06 03:38:08;;;;;;;31.93;14.43;;;;;;;5.51;87.85;98439.61;1512201;94;21320;-62
2020/12/06 03:40:35;;;;;;;31.20;16.20;;;;;;;5.49;87.78;98443.95;1512471;95;21183;-62
2020/12/06 03:43:02;;;;;;;26.37;13.10;;;;;;;5.48;88.52;98431.60;1512216;94;21599;-63
2020/12/06 03:49:11;;;;;;;30.70;15.30;;;;;;;5.54;88.31;98429.00;1512229;95;21160;-63
2020/12/06 03:51:38;;;;;;;34.93;15.77;;;;;;;5.58;88.62;98427.25;1512241;94;21159;-65
2020/12/06 03:54:04;;;;;;;29.07;15.63;;;;;;;5.57;88.47;98424.32;1512448;95;21160;-63
2020/12/06 03:56:31;;;;;;;30.97;15.87;;;;;;;5.58;88.58;98429.16;1512471;94;21568;-66
2020/12/06 03:58:58;;;;;;;32.03;15.80;;;;;;;5.56;88.47;98426.77;1512193;94;21579;-64
2020/12/06 04:05:07;;;;;;;32.57;15.73;;;;;;;5.61;88.94;98436.02;1512192;95;21720;-63
2020/12/06 04:07:33;;;;;;;31.57;15.90;;;;;;;5.63;88.84;98440.52;1512740;95;21206;-62
2020/12/06 04:10:00;;;;;;;30.07;15.43;;;;;;;5.62;88.84;98432.23;1512275;94;21779;-65
2020/12/06 04:12:27;;;;;;;33.43;16.17;;;;;;;5.63;88.97;98440.52;1512705;94;21168;-64
2020/12/06 04:14:54;;;;;;;30.87;15.87;;;;;;;5.62;89.30;98444.34;1511651;95;21171;-64
2020/12/06 04:17:21;;;;;;;29.47;15.63;;;;;;;5.62;90.00;98444.34;1512409;95;21167;-63
2020/12/06 04:19:48;;;;;;;30.37;14.43;;;;;;;5.62;90.27;98448.38;1512519;95;21190;-63
2020/12/06 04:22:14;;;;;;;31.97;14.80;;;;;;;5.64;90.76;98448.03;1512303;95;21174;-66
2020/12/06 04:24:41;;;;;;;27.13;13.83;;;;;;;5.61;91.15;98447.34;1518724;94;21641;-64
2020/12/06 04:27:08;;;;;;;26.40;13.57;;;;;;;5.60;91.29;98439.02;1523475;94;21562;-63
2020/12/06 04:29:35;;;;;;;27.33;13.40;;;;;;;5.61;91.39;98444.64;1523195;94;21896;-63
2020/12/06 04:32:02;;;;;;;29.93;13.70;;;;;;;5.64;91.70;98439.97;1523277;94;21635;-63
2020/12/06 04:34:28;;;;;;;25.00;12.10;;;;;;;5.71;91.61;98447.78;1523170;94;21163;-62
2020/12/06 04:36:55;;;;;;;27.70;13.73;;;;;;;5.72;91.95;98441.30;1523177;94;21213;-65
2020/12/06 04:39:22;;;;;;;25.57;13.70;;;;;;;5.75;92.19;98446.59;1519612;94;21151;-64
2020/12/06 04:41:49;;;;;;;28.00;14.63;;;;;;;5.76;91.90;98444.14;1523144;94;21198;-64
2020/12/06 04:44:16;;;;;;;27.50;14.53;;;;;;;5.77;91.67;98446.49;1523077;94;21195;-65
2020/12/06 04:50:33;;;;;;;26.87;12.80;;;;;;;5.77;91.51;98442.45;1523193;94;21155;-66
2020/12/06 04:53:02;;;;;;;26.03;12.97;;;;;;;5.74;91.21;98443.66;1523276;94;21634;-66
2020/12/06 04:55:36;;;;;;;25.80;13.37;;;;;;;5.75;91.18;98441.20;1523537;94;21632;-63
2020/12/06 04:58:04;;;;;;;25.13;12.90;;;;;;;5.75;91.25;98442.00;1523534;94;21195;-65
2020/12/06 05:00:35;;;;;;;26.83;14.57;;;;;;;5.77;91.51;98439.00;1523238;94;21142;-64
2020/12/06 05:03:08;;;;;;;29.90;14.53;;;;;;;5.78;91.58;98445.39;1522784;94;21583;-63
2020/12/06 05:05:41;;;;;;;26.97;14.23;;;;;;;5.79;91.61;98446.98;1523226;94;21151;-64
2020/12/06 05:08:11;;;;;;;32.40;15.73;;;;;;;5.80;91.59;98454.50;1522601;94;21190;-63
2020/12/06 05:10:42;;;;;;;33.50;15.90;;;;;;;5.79;91.71;98450.22;1522945;94;21572;-64
2020/12/06 05:13:09;;;;;;;35.30;16.90;;;;;;;5.76;91.38;98445.48;1523285;94;21592;-64
2020/12/06 05:15:36;;;;;;;35.03;16.57;;;;;;;5.73;91.27;98448.82;1523168;94;21610;-65
2020/12/06 05:18:03;;;;;;;29.43;15.57;;;;;;;5.72;91.35;98445.89;1523180;94;21159;-63
2020/12/06 05:20:30;;;;;;;35.60;17.77;;;;;;;5.70;91.33;98446.20;1523515;94;21170;-63
2020/12/06 05:22:57;;;;;;;30.60;16.20;;;;;;;5.71;91.68;98446.99;1523145;94;21175;-63
2020/12/06 05:25:24;;;;;;;34.53;17.27;;;;;;;5.72;91.57;98445.34;1514985;94;21191;-61
2020/12/06 05:27:50;;;;;;;29.67;14.57;;;;;;;5.69;91.50;98441.95;1512236;95;21193;-62
2020/12/06 05:30:17;;;;;;;35.50;18.07;;;;;;;5.68;91.68;98450.33;1512247;95;21140;-64
2020/12/06 05:32:44;;;;;;;26.53;14.07;;;;;;;5.59;91.93;98443.61;1512167;95;21176;-65
2020/12/06 05:35:12;;;;;;;23.80;12.70;;;;;;;5.55;92.39;98438.63;1512450;95;21619;-66
2020/12/06 05:37:41;;;;;;;24.77;12.37;;;;;;;5.55;92.65;98448.05;1512241;95;21514;-66
2020/12/06 05:40:10;;;;;;;22.30;11.60;;;;;;;5.55;92.85;98456.70;1512153;94;21191;-64
2020/12/06 05:42:41;;;;;;;25.90;11.90;;;;;;;5.58;93.43;98458.19;1512212;95;21144;-61
2020/12/06 05:45:09;;;;;;;23.87;11.60;;;;;;;5.63;93.95;98449.14;1512144;94;21175;-64
2020/12/06 05:47:36;;;;;;;22.13;11.53;;;;;;;5.66;93.69;98447.94;1512399;94;21181;-62
2020/12/06 05:50:04;;;;;;;22.43;10.97;;;;;;;5.71;93.64;98461.78;1512128;94;21176;-63
2020/12/06 05:52:33;;;;;;;23.50;11.23;;;;;;;5.74;93.59;98456.56;1512217;94;21584;-59
2020/12/06 05:55:00;;;;;;;21.43;10.93;;;;;;;5.74;93.55;98455.77;1512106;95;21199;-63
2020/12/06 05:57:29;;;;;;;23.67;11.53;;;;;;;5.77;93.35;98458.60;1512063;94;21192;-64
2020/12/06 06:00:01;;;;;;;27.50;13.27;;;;;;;5.78;93.44;98459.39;1512056;95;21191;-65
2020/12/06 06:02:28;;;;;;;24.20;11.80;;;;;;;5.80;93.11;98457.98;1512547;95;21195;-65
2020/12/06 06:05:03;;;;;;;25.27;12.30;;;;;;;5.85;93.36;98457.00;1512122;94;21226;-65
2020/12/06 06:07:31;;;;;;;24.57;12.30;;;;;;;5.86;93.19;98451.89;1512091;95;21369;-66
2020/12/06 06:10:06;;;;;;;21.60;12.27;;;;;;;5.86;92.85;98459.97;1511779;95;21164;-63
2020/12/06 06:12:43;;;;;;;23.97;12.10;;;;;;;5.84;93.04;98460.27;1512270;94;21156;-64
2020/12/06 06:15:09;;;;;;;27.57;11.90;;;;;;;5.84;93.12;98457.58;1512579;95;21598;-65
2020/12/06 06:17:36;;;;;;;22.80;11.10;;;;;;;5.88;92.81;98467.18;1512205;94;21163;-63
2020/12/06 06:20:03;;;;;;;25.17;11.77;;;;;;;5.85;92.58;98467.22;1511517;94;21156;-64
2020/12/06 06:22:37;;;;;;;24.10;11.17;;;;;;;5.84;92.53;98470.25;1512070;94;21164;-63
2020/12/06 06:25:04;;;;;;;24.63;11.67;;;;;;;5.86;92.54;98473.42;1512147;94;21239;-63
2020/12/06 06:27:37;;;;;;;26.57;12.63;;;;;;;5.91;92.65;98474.61;1492072;95;21214;-63
2020/12/06 06:30:07;;;;;;;23.93;11.77;;;;;;;5.96;92.62;98475.77;1512137;94;21174;-64
2020/12/06 06:32:35;;;;;;;22.43;11.27;;;;;;;6.02;92.77;98479.88;1511232;95;21616;-63
2020/12/06 06:35:03;;;;;;;26.53;11.90;;;;;;;6.04;92.66;98476.84;1512518;94;21557;-63
2020/12/06 06:37:31;;;;;;;24.90;12.07;;;;;;;6.08;92.58;98479.14;1512144;95;21592;-62
2020/12/06 06:39:59;;;;;;;25.27;11.90;;;;;;;6.13;92.42;98483.80;1512066;94;21326;-61
2020/12/06 06:42:27;;;;;;;22.20;11.13;;;;;;;6.19;92.26;98476.33;1512350;94;21310;-64
2020/12/06 06:48:36;;;;;;;24.53;12.10;;;;;;;6.24;91.81;98486.38;1512122;95;21322;-62
2020/12/06 06:51:04;;;;;;;25.93;12.77;;;;;;;6.25;91.36;98492.00;1512319;95;21184;-63
2020/12/06 06:53:31;;;;;;;23.70;12.87;;;;;;;6.33;91.18;98493.09;1512181;94;21710;-64
2020/12/06 06:56:00;;;;;;;26.53;13.30;;;;;;;6.33;91.34;98489.59;1511870;95;21172;-62
2020/12/06 06:58:30;;;;;;;36.37;14.80;;;;;;;6.39;90.99;98493.68;1512158;95;21203;-67
2020/12/06 07:04:44;;;;;;;32.90;14.17;;;;;;;6.47;90.63;98504.43;1511894;95;21222;-62
2020/12/06 07:07:11;;;;;;;31.30;14.50;;;;;;;6.43;90.09;98501.35;1512047;94;21369;-65
2020/12/06 07:09:38;;;;;;;29.20;15.67;;;;;;;6.50;90.03;98505.67;1473921;95;21205;-66
2020/12/06 07:12:05;;;;;;;32.30;15.37;;;;;;;6.53;90.08;98497.73;1511934;95;21231;-66
2020/12/06 07:14:32;;;;;;;32.07;15.30;;;;;;;6.60;89.77;98512.04;1511226;95;21585;-67
2020/12/06 07:20:42;;;;;;;30.07;14.43;;;;;;;6.68;89.42;98509.86;1511830;95;21185;-65
2020/12/06 07:23:09;;;;;;;33.00;15.27;;;;;;;6.73;89.09;98515.88;1511600;94;21596;-65
2020/12/06 07:25:36;;;;;;;30.50;13.83;;;;;;;6.82;88.78;98517.73;1496864;94;21379;-65
2020/12/06 07:28:04;;;;;;;30.17;13.40;;;;;;;6.94;88.39;98517.80;1522835;94;21194;-67
2020/12/06 07:30:30;;;;;;;23.50;12.33;;;;;;;6.97;88.21;98513.92;1481265;94;21654;-65
2020/12/06 07:32:57;;;;;;;26.90;12.53;;;;;;;7.05;87.97;98504.20;1522978;94;21159;-66
2020/12/06 07:35:24;;;;;;;24.37;12.43;;;;;;;7.21;87.34;98500.58;1523225;94;21203;-66
2020/12/06 07:37:56;;;;;;;25.20;11.73;;;;;;;7.45;86.54;98494.53;1522930;94;21396;-66
2020/12/06 07:40:23;;;;;;;;;;;;;;;7.53;86.18;98498.28;1525350;94;21234;-65
2020/12/06 07:42:49;;;;;;;26.83;12.33;;;;;;;7.54;86.05;98494.44;1523038;94;20249;-63
2020/12/06 07:45:16;;;;;;;27.53;12.33;;;;;;;7.59;86.08;98505.84;1522996;94;21151;-65
2020/12/06 07:47:43;;;;;;;24.87;12.40;;;;;;;7.65;85.63;98507.75;1522844;94;21175;-60
2020/12/06 07:50:10;;;;;;;27.53;13.03;;;;;;;7.73;85.39;98502.84;1522857;94;21217;-64
2020/12/06 07:52:39;;;;;;;23.67;11.83;;;;;;;7.83;85.12;98507.84;1523130;94;21175;-66
2020/12/06 07:55:08;;;;;;;25.40;12.83;;;;;;;7.88;84.77;98507.63;1523060;94;21183;-63
2020/12/06 07:57:49;;;;;;;26.93;12.43;;;;;;;8.02;84.68;98505.99;1523261;94;21202;-62
2020/12/06 08:00:21;;;;;;;24.00;12.57;;;;;;;8.15;84.22;98506.23;1523281;94;21199;-62
2020/12/06 08:02:53;;;;;;;;;;;;;;;8.30;83.89;98503.48;1525319;94;21171;-60
2020/12/06 08:05:22;;;;;;;21.57;11.65;;;;;;;8.34;83.68;98507.87;1522377;94;20146;-63
2020/12/06 08:08:01;;;;;;;22.47;11.37;;;;;;;8.48;83.33;98505.64;1523035;94;21639;-61
2020/12/06 08:10:27;;;;;;;19.50;9.57;;;;;;;8.56;82.61;98499.90;1523004;94;21175;-64
2020/12/06 08:12:55;;;;;;;24.10;11.33;;;;;;;8.56;82.12;98486.38;1519170;94;21197;-65
2020/12/06 08:15:26;;;;;;;21.13;10.30;;;;;;;8.69;81.97;98492.83;1523277;94;21191;-65
2020/12/06 08:17:54;;;;;;;19.12;10.35;;;;;;;8.75;81.47;98493.38;1522776;94;21202;-64
2020/12/06 08:20:26;;;;;;;20.30;10.27;;;;;;;8.88;81.30;98491.45;1523041;94;21332;-65
2020/12/06 08:22:59;;;;;;;19.40;9.87;;;;;;;8.99;80.92;98491.22;1522834;94;21199;-65
2020/12/06 08:25:31;;;;;;;20.07;9.90;;;;;;;9.16;80.05;98497.16;1518257;94;21372;-63
2020/12/06 08:28:00;;;;;;;;;;;;;;;9.25;79.95;98500.30;1514011;95;21222;-65
2020/12/06 08:30:30;;;;;;;21.00;10.13;;;;;;;9.32;80.22;98507.27;1511911;94;20251;-64
2020/12/06 08:33:02;;;;;;;20.03;9.43;;;;;;;9.46;79.70;98507.11;1512318;94;21176;-65
2020/12/06 08:35:53;;;;;;;21.15;9.78;;;;;;;9.59;79.26;98514.08;1511611;94;21259;-65
2020/12/06 08:38:24;;;;;;;19.20;9.60;;;;;;;9.72;78.64;98505.33;1512039;94;21218;-62
2020/12/06 08:41:10;;;;;;;19.25;8.93;;;;;;;9.84;78.25;98504.48;1511569;95;21237;-65
2020/12/06 08:43:45;;;;;;;20.67;9.30;;;;;;;9.94;77.52;98509.39;1512022;94;21565;-66
2020/12/06 08:46:14;;;;;;;17.87;8.67;;;;;;;10.05;77.13;98511.83;1511163;95;21406;-66
2020/12/06 08:48:42;;;;;;;17.90;7.80;;;;;;;10.11;75.99;98510.45;1511730;95;21250;-65
2020/12/06 08:51:32;;;;;;;22.90;9.37;;;;;;;10.22;76.66;98508.84;1511729;95;21261;-64
2020/12/06 08:54:04;;;;;;;17.35;8.43;;;;;;;10.33;75.87;98492.28;1489183;95;21195;-61
2020/12/06 08:56:35;;;;;;;17.98;9.15;;;;;;;10.43;75.77;98493.66;1511478;95;21210;-66
2020/12/06 08:59:11;;;;;;;20.55;9.35;;;;;;;10.52;75.40;98495.64;1511555;95;21226;-65
2020/12/06 09:01:50;;;;;;;19.73;9.60;;;;;;;10.62;74.57;98494.55;1511522;94;21250;-65
2020/12/06 09:04:17;;;;;;;21.12;10.85;;;;;;;10.72;74.27;98488.38;1511756;95;21405;-66
2020/12/06 09:06:44;;;;;;;19.12;9.18;;;;;;;10.82;73.64;98483.77;1491442;95;21190;-65
2020/12/06 09:09:12;;;;;;;21.77;10.13;;;;;;;10.92;72.87;98491.35;1511178;95;21367;-65
2020/12/06 09:11:39;;;;;;;18.30;10.20;;;;;;;10.96;72.82;98489.51;1511282;95;21211;-66
2020/12/06 09:14:06;;;;;;;22.02;10.15;;;;;;;11.02;72.96;98484.80;1511431;95;21365;-65
2020/12/06 09:16:33;;;;;;;23.62;10.55;;;;;;;11.14;72.34;98486.61;1511222;95;21352;-66
2020/12/06 09:19:01;;;;;;;22.95;11.30;;;;;;;11.15;72.07;98486.84;1511048;95;21341;-64
2020/12/06 09:21:32;;;;;;;21.95;10.68;;;;;;;11.24;71.90;98489.36;1512340;95;21218;-65
2020/12/06 09:23:57;;;;;;;23.52;10.70;;;;;;;11.29;71.56;98491.21;1511712;95;21627;-61
2020/12/06 09:26:24;;;;;;;23.38;10.43;;;;;;;11.41;70.64;98484.30;1519927;94;21635;-65
2020/12/06 09:28:51;;;;;;;26.35;10.72;;;;;;;11.44;70.92;98484.94;1523468;94;21179;-66
2020/12/06 09:35:00;;;;;;;20.48;10.25;;;;;;;11.53;69.65;98470.58;1523336;94;21151;-65
2020/12/06 09:37:27;;;;;;;19.55;8.80;;;;;;;11.61;69.70;98455.22;1523146;94;21162;-64
2020/12/06 09:39:53;;;;;;;20.27;9.38;;;;;;;11.69;69.68;98459.64;1523197;94;21579;-64
2020/12/06 09:42:21;;;;;;;21.37;10.23;;;;;;;11.78;69.28;98452.07;1523346;94;21167;-66
2020/12/06 09:44:49;;;;;;;23.60;9.78;;;;;;;11.84;69.05;98455.30;1523403;94;21638;-65
2020/12/06 09:50:58;;;;;;;21.25;9.50;;;;;;;12.02;68.01;98442.81;1523297;94;21336;-64
2020/12/06 09:53:25;;;;;;;18.85;8.60;;;;;;;12.06;67.80;98440.38;1523182;94;21647;-62
2020/12/06 09:55:52;;;;;;;26.50;9.35;;;;;;;12.16;67.90;98428.09;1523112;94;21170;-65
2020/12/06 09:58:19;;;;;;;19.85;8.33;;;;;;;12.25;67.72;98416.98;1523128;94;21191;-63
2020/12/06 10:00:46;;;;;;;20.23;8.90;;;;;;;12.32;67.53;98413.02;1523224;94;21622;-65
2020/12/06 10:03:13;;;;;;;19.23;8.50;;;;;;;12.41;67.04;98419.00;1523538;94;21309;-64
2020/12/06 10:05:39;;;;;;;18.23;9.08;;;;;;;12.47;66.83;98405.30;1523346;94;21197;-65
2020/12/06 10:08:06;;;;;;;19.82;9.58;;;;;;;12.57;66.20;98395.92;1499677;94;21146;-64
2020/12/06 10:10:34;;;;;;;21.07;8.78;;;;;;;12.63;66.11;98398.34;1523563;94;21339;-65
2020/12/06 10:13:00;;;;;;;17.10;8.43;;;;;;;12.74;66.03;98397.35;1523164;94;21147;-66
2020/12/06 10:15:27;;;;;;;15.13;7.65;;;;;;;12.79;65.64;98386.13;1523196;94;21197;-66
2020/12/06 10:17:54;;;;;;;16.45;6.87;;;;;;;12.90;65.25;98387.63;1523465;94;21182;-64
2020/12/06 10:20:21;;;;;;;14.65;6.97;;;;;;;13.02;64.48;98386.05;1523068;94;21158;-65
2020/12/06 10:22:48;;;;;;;12.95;5.87;;;;;;;13.05;64.53;98375.77;1523080;94;21626;-65
2020/12/06 10:25:15;;;;;;;11.75;5.92;;;;;;;13.15;63.67;98378.47;1522917;94;21167;-64
2020/12/06 10:27:41;;;;;;;10.45;5.17;;;;;;;13.15;62.79;98369.72;1522807;94;21223;-62
2020/12/06 10:30:08;;;;;;;7.72;4.60;;;;;;;13.24;62.35;98361.24;1522891;94;21607;-66
2020/12/06 10:32:36;;;;;;;9.05;5.03;;;;;;;13.31;62.10;98370.28;1518796;94;21159;-65
2020/12/06 10:35:03;;;;;;;8.95;5.12;;;;;;;13.37;61.51;98363.36;1522930;94;21205;-65
2020/12/06 10:37:33;;;;;;;8.18;4.85;;;;;;;13.38;61.33;98351.32;1522922;94;21183;-61
2020/12/06 10:39:59;;;;;;;6.37;4.25;;;;;;;13.51;60.77;98364.09;1522782;94;21202;-62
2020/12/06 10:42:26;;;;;;;9.10;4.83;;;;;;;13.55;60.48;98358.09;1523095;94;21202;-63
2020/12/06 10:44:54;;;;;;;8.83;4.80;;;;;;;13.59;59.77;98356.20;1523078;94;21572;-63
2020/12/06 10:47:20;;;;;;;8.05;4.42;;;;;;;13.63;59.74;98352.93;1523440;94;21156;-63
2020/12/06 10:49:47;;;;;;;6.72;4.62;;;;;;;13.71;59.58;98358.66;1523135;94;21806;-67
2020/12/06 10:52:15;;;;;;;11.00;5.37;;;;;;;13.64;58.47;98351.78;1523339;94;21651;-58
2020/12/06 10:54:42;;;;;;;7.75;4.60;;;;;;;13.70;58.50;98344.81;1523036;94;21604;-61
2020/12/06 10:57:08;;;;;;;8.65;4.47;;;;;;;13.72;58.86;98344.45;1522999;94;21213;-60
2020/12/06 10:59:36;;;;;;;7.12;4.47;;;;;;;13.70;58.94;98346.76;1523007;94;21195;-62
2020/12/06 11:05:44;;;;;;;8.13;4.35;;;;;;;13.69;59.10;98346.55;1523104;94;21270;-65
2020/12/06 11:08:11;;;;;;;7.15;4.60;;;;;;;13.67;58.68;98336.61;1523035;94;21180;-61
2020/12/06 11:10:38;;;;;;;9.48;4.40;;;;;;;13.69;58.87;98339.73;1523086;94;21155;-63
2020/12/06 11:13:05;;;;;;;10.18;4.47;;;;;;;13.67;58.74;98338.77;1523259;94;21171;-64
2020/12/06 11:15:32;;;;;;;8.60;4.70;;;;;;;13.71;58.33;98331.98;1523282;94;21155;-63
2020/12/06 11:21:41;;;;;;;8.40;4.33;;;;;;;13.77;58.25;98333.98;1523029;94;21301;-67
2020/12/06 11:24:08;;;;;;;9.40;4.50;;;;;;;13.79;57.99;98338.49;1523168;94;21189;-65
2020/12/06 11:26:35;;;;;;;8.78;4.67;;;;;;;13.82;58.07;98330.13;1517835;94;21242;-67
2020/12/06 11:29:01;;;;;;;8.30;3.87;;;;;;;13.93;58.14;98336.46;1511956;95;21633;-64
2020/12/06 11:31:28;;;;;;;8.68;5.75;;;;;;;13.88;57.20;98330.77;1511949;95;21593;-66
2020/12/06 11:33:55;;;;;;;8.40;4.53;;;;;;;14.02;57.99;98331.48;1512009;95;21361;-66
2020/12/06 11:36:22;;;;;;;8.03;4.90;;;;;;;14.03;57.77;98327.58;1512086;94;21179;-67
2020/12/06 11:38:49;;;;;;;9.48;4.87;;;;;;;14.08;57.48;98314.18;1512249;94;21308;-65
2020/12/06 11:41:16;;;;;;;8.78;4.33;;;;;;;14.15;56.87;98317.73;1511844;94;21718;-66
2020/12/06 11:43:43;;;;;;;7.97;4.62;;;;;;;14.16;56.67;98317.95;1511981;94;21631;-67
2020/12/06 11:46:10;;;;;;;7.40;4.50;;;;;;;14.15;55.77;98316.95;1511754;95;21199;-66
2020/12/06 11:52:19;;;;;;;8.13;3.72;;;;;;;14.28;55.58;98309.47;1510865;95;21333;-67
2020/12/06 11:54:46;;;;;;;6.70;3.85;;;;;;;14.18;55.11;98316.19;1510998;94;21219;-67
2020/12/06 11:57:13;;;;;;;7.70;4.30;;;;;;;14.18;54.68;98318.92;1511019;95;21242;-66
2020/12/06 11:59:40;;;;;;;6.28;4.20;;;;;;;14.16;54.67;98305.67;1511217;95;21176;-67
2020/12/06 12:02:07;;;;;;;10.65;4.55;;;;;;;14.22;54.15;98316.42;1510933;94;21247;-67
2020/12/06 12:04:33;;;;;;;8.80;4.22;;;;;;;14.18;54.53;98315.61;1511248;94;21865;-66
2020/12/06 12:07:00;;;;;;;7.58;4.10;;;;;;;14.13;54.28;98311.11;1510983;95;21211;-67
2020/12/06 12:09:27;;;;;;;9.83;3.75;;;;;;;14.13;53.05;98313.26;1511159;94;21257;-67
2020/12/06 12:11:55;;;;;;;7.28;4.20;;;;;;;14.06;53.31;98304.23;1511318;95;21259;-65
2020/12/06 12:14:22;;;;;;;6.53;4.10;;;;;;;14.09;53.72;98312.45;1511367;95;21254;-67
2020/12/06 12:16:48;;;;;;;13.45;5.28;;;;;;;14.13;53.36;98312.47;1511262;95;21227;-67
2020/12/06 12:19:15;;;;;;;5.75;3.50;;;;;;;14.15;53.53;98315.02;1511301;95;21662;-68
2020/12/06 12:21:42;;;;;;;8.08;4.00;;;;;;;14.14;53.23;98306.63;1511520;94;21234;-67
2020/12/06 12:24:09;;;;;;;8.48;3.92;;;;;;;14.10;52.90;98300.36;1511456;94;21234;-67
2020/12/06 12:26:36;;;;;;;6.08;3.35;;;;;;;14.07;52.71;98303.06;1515247;94;21204;-67
2020/12/06 12:29:03;;;;;;;6.97;3.50;;;;;;;14.11;52.66;98299.78;1521996;94;21388;-67
2020/12/06 12:31:32;;;;;;;7.45;3.50;;;;;;;14.09;52.47;98296.66;1522327;94;21171;-66
2020/12/06 12:33:59;;;;;;;6.90;4.15;;;;;;;14.15;52.47;98293.19;1522507;94;21505;-66
2020/12/06 12:36:26;;;;;;;7.90;3.25;;;;;;;14.19;52.42;98294.00;1522131;94;21203;-66